Time;durP1;ratioP1;P1;durP2;ratioP2;P2;SDS_P1;SDS_P2;PMS_P1;PMS_P2;Temp;Humidity;BMP_temperature;BMP_pressure;BME280_temperature;BME280_humidity;BME280_pressure;Samples;Min_cycle;Max_cycle;Signal;HPM_P1;HPM_P2
2023/04/14 00:03:57;;;;;;;;;;;16.90;57.20;;;;;;10252530;28;88015;-65
2023/04/14 00:08:59;;;;;;;;;;;16.90;57.20;;;;;;10252028;28;88983;-65
2023/04/14 00:14:02;;;;;;;;;;;16.80;57.10;;;;;;10252011;28;90054;-65
2023/04/14 00:19:04;;;;;;;;;;;16.80;57.10;;;;;;10251041;28;89544;-65
2023/04/14 00:24:05;;;;;;;;;;;16.80;57.10;;;;;;10252291;28;89142;-65
2023/04/14 00:29:07;;;;;;;;;;;16.80;57.10;;;;;;10251843;28;88798;-65
2023/04/14 00:34:09;;;;;;;;;;;16.80;57.00;;;;;;10253487;28;89997;-65
2023/04/14 00:39:10;;;;;;;;;;;16.80;57.10;;;;;;10251416;28;89031;-66
2023/04/14 00:44:12;;;;;;;;;;;16.80;57.00;;;;;;10250386;28;89038;-65
2023/04/14 00:49:14;;;;;;;;;;;16.80;56.90;;;;;;10251656;28;90174;-65
2023/04/14 00:54:17;;;;;;;;;;;16.70;56.90;;;;;;10255989;28;88158;-65
2023/04/14 00:59:19;;;;;;;;;;;16.70;56.90;;;;;;10257751;28;89236;-65
2023/04/14 01:04:21;;;;;;;;;;;16.70;57.00;;;;;;10257666;28;89051;-65
2023/04/14 01:09:24;;;;;;;;;;;16.70;56.90;;;;;;10256545;28;89813;-64
2023/04/14 01:14:47;;;;;;;;;;;16.70;56.90;;;;;;10257906;28;89180;-65
2023/04/14 01:19:55;;;;;;;;;;;16.70;56.90;;;;;;10256947;28;89700;-65
2023/04/14 01:25:15;;;;;;;;;;;16.60;56.80;;;;;;10257794;28;88894;-65
2023/04/14 01:30:22;;;;;;;;;;;16.60;56.80;;;;;;10257248;28;89704;-65
2023/04/14 01:35:28;;;;;;;;;;;16.60;56.80;;;;;;10256400;28;89170;-64
2023/04/14 01:40:31;;;;;;;;;;;16.60;56.80;;;;;;10256652;28;89990;-65
2023/04/14 01:45:36;;;;;;;;;;;16.60;56.90;;;;;;10256826;28;88375;-65
2023/04/14 01:50:39;;;;;;;;;;;16.60;56.90;;;;;;10256149;28;88041;-65
2023/04/14 01:55:43;;;;;;;;;;;16.60;56.80;;;;;;10239228;28;89519;-65
2023/04/14 02:00:45;;;;;;;;;;;16.60;56.70;;;;;;10237940;28;90737;-65
2023/04/14 02:05:47;;;;;;;;;;;16.60;56.70;;;;;;10256027;28;90063;-65
2023/04/14 02:10:51;;;;;;;;;;;16.50;56.60;;;;;;10255381;28;90196;-65
2023/04/14 02:15:52;;;;;;;;;;;16.60;56.60;;;;;;10255750;28;88864;-65
2023/04/14 02:20:55;;;;;;;;;;;16.50;56.50;;;;;;10239475;28;90167;-65
2023/04/14 02:26:03;;;;;;;;;;;16.50;56.40;;;;;;10237493;28;89773;-65
2023/04/14 02:31:08;;;;;;;;;;;16.50;56.50;;;;;;10256241;28;89097;-65
2023/04/14 02:36:15;;;;;;;;;;;16.50;56.50;;;;;;10255614;28;89424;-65
2023/04/14 02:41:27;;;;;;;;;;;16.50;56.50;;;;;;10255295;28;88596;-66
2023/04/14 02:46:32;;;;;;;;;;;16.50;56.50;;;;;;10254129;28;88065;-66
2023/04/14 02:51:35;;;;;;;;;;;16.50;56.40;;;;;;10253763;28;89787;-65
2023/04/14 02:56:37;;;;;;;;;;;16.40;56.30;;;;;;10253665;28;89865;-65
2023/04/14 03:01:38;;;;;;;;;;;16.50;56.30;;;;;;10236398;28;88885;-65
2023/04/14 03:06:40;;;;;;;;;;;16.40;56.30;;;;;;10253828;28;90158;-65
2023/04/14 03:11:43;;;;;;;;;;;16.40;56.30;;;;;;10253354;28;90206;-65
2023/04/14 03:16:45;;;;;;;;;;;16.40;56.20;;;;;;10234063;28;89168;-65
2023/04/14 03:21:48;;;;;;;;;;;16.40;56.10;;;;;;10253310;28;89323;-65
2023/04/14 03:26:54;;;;;;;;;;;16.40;56.10;;;;;;10254223;28;89269;-65
2023/04/14 03:31:59;;;;;;;;;;;16.40;56.10;;;;;;10253277;28;89850;-65
2023/04/14 03:37:01;;;;;;;;;;;16.30;56.10;;;;;;10253239;28;88526;-65
2023/04/14 03:42:03;;;;;;;;;;;16.30;56.00;;;;;;10251483;28;90783;-65
2023/04/14 05:05:01;;;;;;;;;;;16.60;55.10;;;;;;10224199;28;88477;-70
2023/04/14 05:10:03;;;;;;;;;;;16.70;55.70;;;;;;10215580;28;89824;-70
2023/04/14 05:15:05;;;;;;;;;;;16.80;54.70;;;;;;10217139;28;90473;-69
2023/04/14 05:20:07;;;;;;;;;;;16.80;54.40;;;;;;10217242;28;89224;-70
2023/04/14 05:25:09;;;;;;;;;;;16.80;54.40;;;;;;10217749;28;89675;-69
2023/04/14 05:30:11;;;;;;;;;;;16.80;54.60;;;;;;10215714;28;89104;-70
2023/04/14 05:35:13;;;;;;;;;;;16.80;54.80;;;;;;10199495;28;88857;-70
2023/04/14 05:40:15;;;;;;;;;;;16.80;55.00;;;;;;10214917;28;90495;-71
2023/04/14 05:45:16;;;;;;;;;;;16.80;55.40;;;;;;10199291;28;89016;-71
2023/04/14 05:50:18;;;;;;;;;;;16.70;55.30;;;;;;10242657;28;88860;-70
2023/04/14 05:55:20;;;;;;;;;;;16.70;55.40;;;;;;10255355;28;89052;-73
2023/04/14 06:00:24;;;;;;;;;;;16.70;56.90;;;;;;10255301;28;89105;-70
2023/04/14 06:05:25;;;;;;;;;;;16.70;58.90;;;;;;10235079;28;89031;-68
2023/04/14 06:10:27;;;;;;;;;;;16.70;58.90;;;;;;10253156;28;88127;-70
2023/04/14 06:15:30;;;;;;;;;;;16.70;58.30;;;;;;10252531;28;88420;-70
2023/04/14 06:20:32;;;;;;;;;;;16.70;58.40;;;;;;10236308;28;89147;-69
2023/04/14 06:25:34;;;;;;;;;;;16.80;58.40;;;;;;10253766;28;90035;-70
2023/04/14 06:30:35;;;;;;;;;;;16.70;57.80;;;;;;10252605;28;90392;-70
2023/04/14 06:35:37;;;;;;;;;;;16.70;57.80;;;;;;10235620;28;89107;-70
2023/04/14 06:40:39;;;;;;;;;;;16.70;57.80;;;;;;10252781;28;88334;-70
2023/04/14 06:45:41;;;;;;;;;;;16.60;57.80;;;;;;10254164;28;89118;-70
2023/04/14 06:50:42;;;;;;;;;;;16.60;58.10;;;;;;10252024;28;90128;-69
2023/04/14 06:55:45;;;;;;;;;;;16.60;58.10;;;;;;10252750;28;90336;-69
2023/04/14 07:00:47;;;;;;;;;;;16.70;57.80;;;;;;10252118;28;88973;-69
2023/04/14 07:05:49;;;;;;;;;;;16.70;57.90;;;;;;10254518;28;88954;-69
2023/04/14 07:10:57;;;;;;;;;;;16.70;57.80;;;;;;10252808;28;89107;-68
2023/04/14 07:15:59;;;;;;;;;;;16.70;57.70;;;;;;10235301;28;89110;-69
2023/04/14 07:21:01;;;;;;;;;;;16.70;57.80;;;;;;10252725;28;91192;-70
2023/04/14 07:26:03;;;;;;;;;;;16.80;57.60;;;;;;10254342;28;89204;-71
2023/04/14 07:31:08;;;;;;;;;;;16.80;57.40;;;;;;10253748;28;90227;-70
2023/04/14 07:36:10;;;;;;;;;;;16.80;57.20;;;;;;10252532;28;89837;-70
2023/04/14 07:41:12;;;;;;;;;;;16.80;57.50;;;;;;10252623;28;90104;-70
2023/04/14 07:46:13;;;;;;;;;;;16.80;57.30;;;;;;10251724;28;88697;-69
2023/04/14 07:51:15;;;;;;;;;;;16.80;57.30;;;;;;10252610;28;89784;-70
2023/04/14 07:56:17;;;;;;;;;;;16.80;57.50;;;;;;10252177;28;88398;-70
2023/04/14 08:01:19;;;;;;;;;;;16.90;57.40;;;;;;10251328;28;89138;-70
2023/04/14 08:06:21;;;;;;;;;;;16.90;57.20;;;;;;10259125;28;89780;-70
2023/04/14 08:11:22;;;;;;;;;;;16.90;57.10;;;;;;10240617;28;89707;-70
2023/04/14 08:16:25;;;;;;;;;;;16.90;57.00;;;;;;10259148;28;89439;-70
2023/04/14 08:21:27;;;;;;;;;;;16.90;57.00;;;;;;10240519;28;89561;-70
2023/04/14 08:26:28;;;;;;;;;;;16.90;56.90;;;;;;10258259;28;89595;-70
2023/04/14 08:31:31;;;;;;;;;;;16.90;56.90;;;;;;10258384;28;88802;-71
2023/04/14 08:36:33;;;;;;;;;;;16.90;56.90;;;;;;10257947;28;89990;-70
2023/04/14 08:41:37;;;;;;;;;;;16.90;56.80;;;;;;10253422;28;94277;-71
2023/04/14 08:46:41;;;;;;;;;;;16.90;56.80;;;;;;10252643;28;93015;-70
2023/04/14 08:51:44;;;;;;;;;;;16.90;56.70;;;;;;10253699;28;94486;-70
2023/04/14 08:56:46;;;;;;;;;;;16.90;56.80;;;;;;10252177;28;93554;-71
2023/04/14 09:01:47;;;;;;;;;;;16.90;56.70;;;;;;10250336;28;95787;-71
2023/04/14 09:06:50;;;;;;;;;;;16.90;56.70;;;;;;10252791;28;93670;-70
2023/04/14 09:11:52;;;;;;;;;;;16.90;56.70;;;;;;10252035;28;93461;-70
2023/04/14 09:16:55;;;;;;;;;;;16.90;56.80;;;;;;10252785;28;94549;-70
2023/04/14 09:21:56;;;;;;;;;;;16.90;56.70;;;;;;10234181;28;94080;-70
2023/04/14 09:27:05;;;;;;;;;;;16.90;56.50;;;;;;10251472;28;93464;-70
2023/04/14 09:32:07;;;;;;;;;;;16.90;56.40;;;;;;10250482;28;93751;-70
2023/04/14 09:37:09;;;;;;;;;;;17.00;56.30;;;;;;10252384;28;92770;-70
2023/04/14 09:42:11;;;;;;;;;;;17.10;56.40;;;;;;10250153;28;93625;-71
2023/04/14 09:47:15;;;;;;;;;;;17.20;56.40;;;;;;10249966;28;94016;-70
2023/04/14 09:52:16;;;;;;;;;;;17.30;56.10;;;;;;10231087;28;96607;-71
2023/04/14 09:57:27;;;;;;;;;;;17.50;55.90;;;;;;10251032;28;94450;-71
2023/04/14 10:02:29;;;;;;;;;;;17.70;55.80;;;;;;10249871;28;94102;-71
2023/04/14 10:07:32;;;;;;;;;;;17.90;55.50;;;;;;10233528;28;94347;-71
2023/04/14 10:12:34;;;;;;;;;;;18.00;55.10;;;;;;10250034;28;94352;-70
2023/04/14 10:17:36;;;;;;;;;;;18.20;54.80;;;;;;10250121;28;93112;-71
2023/04/14 10:22:39;;;;;;;;;;;18.30;54.40;;;;;;10249389;28;94624;-71
2023/04/14 10:27:42;;;;;;;;;;;18.30;54.30;;;;;;10247442;28;93753;-67
2023/04/14 10:32:46;;;;;;;;;;;18.30;54.40;;;;;;10228969;28;93829;-70
2023/04/14 10:37:49;;;;;;;;;;;18.30;54.20;;;;;;10247135;28;93870;-70
2023/04/14 10:42:52;;;;;;;;;;;18.30;54.10;;;;;;10245729;28;95950;-70
2023/04/14 10:47:54;;;;;;;;;;;18.30;54.20;;;;;;10246769;28;93619;-71
2023/04/14 10:52:57;;;;;;;;;;;18.30;54.20;;;;;;10230687;28;93626;-70
2023/04/14 10:58:03;;;;;;;;;;;18.30;54.10;;;;;;10247190;28;93444;-71
2023/04/14 11:03:15;;;;;;;;;;;18.30;54.00;;;;;;10229937;28;94648;-71
2023/04/14 11:08:24;;;;;;;;;;;18.20;54.20;;;;;;10247750;28;93492;-70
2023/04/14 11:13:29;;;;;;;;;;;18.20;54.10;;;;;;10230307;28;94785;-70
2023/04/14 11:18:32;;;;;;;;;;;18.10;54.20;;;;;;10248017;28;93237;-70
2023/04/14 11:23:35;;;;;;;;;;;18.10;54.40;;;;;;10247041;28;93413;-70
2023/04/14 11:28:40;;;;;;;;;;;18.00;54.50;;;;;;10246704;28;94433;-71
2023/04/14 11:33:43;;;;;;;;;;;18.00;54.40;;;;;;10243297;28;96009;-71
2023/04/14 11:38:46;;;;;;;;;;;17.90;54.50;;;;;;10246117;28;93573;-71
2023/04/14 11:43:47;;;;;;;;;;;17.90;54.60;;;;;;10246509;28;94628;-71
2023/04/14 11:48:56;;;;;;;;;;;17.80;54.50;;;;;;10246484;28;94610;-72
2023/04/14 11:54:01;;;;;;;;;;;17.80;54.70;;;;;;10247069;28;94550;-71
2023/04/14 11:59:04;;;;;;;;;;;17.70;55.00;;;;;;10245662;28;92891;-71
2023/04/14 12:04:06;;;;;;;;;;;17.80;55.20;;;;;;10228251;28;94573;-72
2023/04/14 12:09:08;;;;;;;;;;;17.80;54.80;;;;;;10246504;28;93249;-71
2023/04/14 12:14:10;;;;;;;;;;;17.80;55.00;;;;;;10244686;28;93530;-70
2023/04/14 12:19:11;;;;;;;;;;;17.80;55.20;;;;;;10245109;28;94529;-70
2023/04/14 12:24:13;;;;;;;;;;;17.80;55.10;;;;;;10243229;28;95896;-70
2023/04/14 12:29:18;;;;;;;;;;;17.80;55.10;;;;;;10228461;28;94088;-71
2023/04/14 12:34:26;;;;;;;;;;;17.80;54.80;;;;;;10228519;28;92586;-70
2023/04/14 12:39:28;;;;;;;;;;;17.80;55.00;;;;;;10245069;28;93502;-70
2023/04/14 12:44:30;;;;;;;;;;;17.70;55.20;;;;;;10245559;28;93522;-70
2023/04/14 12:49:35;;;;;;;;;;;17.70;55.20;;;;;;10247777;28;93580;-70
2023/04/14 12:54:44;;;;;;;;;;;17.70;56.20;;;;;;10252980;28;93381;-69
2023/04/14 12:59:46;;;;;;;;;;;17.70;55.20;;;;;;10235168;28;92866;-70
2023/04/14 13:04:48;;;;;;;;;;;17.70;54.70;;;;;;10252060;28;93437;-70
2023/04/14 13:09:50;;;;;;;;;;;17.70;55.40;;;;;;10234367;28;93973;-69
2023/04/14 13:20:56;;;;;;;;;;;17.70;55.50;;;;;;10249274;28;92937;-70
2023/04/14 13:25:58;;;;;;;;;;;17.70;56.10;;;;;;10250851;28;93434;-70
2023/04/14 13:31:00;;;;;;;;;;;17.70;55.80;;;;;;10251248;28;94613;-70
2023/04/14 13:36:02;;;;;;;;;;;17.70;55.20;;;;;;10233777;28;93864;-71
2023/04/14 13:41:04;;;;;;;;;;;17.70;53.90;;;;;;10250408;28;93915;-70
2023/04/14 13:46:05;;;;;;;;;;;17.70;53.00;;;;;;10249740;28;93177;-70
2023/04/14 13:51:07;;;;;;;;;;;17.70;52.60;;;;;;10249718;28;92822;-71
2023/04/14 13:56:09;;;;;;;;;;;17.60;51.90;;;;;;10250327;28;92820;-68
2023/04/14 14:01:11;;;;;;;;;;;17.60;52.00;;;;;;10231451;28;94535;-70
2023/04/14 14:06:13;;;;;;;;;;;17.70;52.40;;;;;;10248346;28;96737;-66
2023/04/14 14:11:15;;;;;;;;;;;17.70;52.70;;;;;;10232377;28;93454;-69
2023/04/14 14:16:18;;;;;;;;;;;17.80;53.20;;;;;;10248916;28;94262;-69
2023/04/14 14:21:36;;;;;;;;;;;17.80;53.30;;;;;;10233312;28;94717;-68
2023/04/14 14:26:38;;;;;;;;;;;17.70;53.40;;;;;;10249009;28;94647;-71
2023/04/14 14:31:40;;;;;;;;;;;17.80;55.50;;;;;;10231869;28;93457;-69
2023/04/14 14:36:42;;;;;;;;;;;17.80;55.60;;;;;;10248372;28;93436;-70
2023/04/14 14:41:44;;;;;;;;;;;17.90;55.90;;;;;;10250222;28;93673;-69
2023/04/14 14:46:46;;;;;;;;;;;18.00;55.10;;;;;;10249661;28;93737;-67
2023/04/14 14:51:48;;;;;;;;;;;17.90;54.80;;;;;;10249891;28;94648;-68
2023/04/14 14:56:50;;;;;;;;;;;17.90;54.80;;;;;;10214819;28;95725;-68
2023/04/14 15:01:52;;;;;;;;;;;17.80;54.80;;;;;;10221737;28;95384;-66
2023/04/14 15:06:54;;;;;;;;;;;17.80;54.80;;;;;;10206745;28;94148;-68
2023/04/14 15:11:57;;;;;;;;;;;17.80;55.20;;;;;;10195861;28;93011;-69
2023/04/14 15:16:58;;;;;;;;;;;17.90;55.70;;;;;;10190616;28;93678;-68
2023/04/14 15:22:00;;;;;;;;;;;17.90;55.30;;;;;;10206247;28;93286;-67
2023/04/14 15:27:02;;;;;;;;;;;17.90;55.30;;;;;;10188756;28;93656;-67
2023/04/14 15:32:04;;;;;;;;;;;17.90;55.80;;;;;;10207320;28;93179;-68
2023/04/14 15:37:05;;;;;;;;;;;17.90;57.00;;;;;;10205962;28;93790;-68
2023/04/14 15:42:07;;;;;;;;;;;18.00;56.90;;;;;;10206578;28;94683;-68
2023/04/14 15:47:09;;;;;;;;;;;18.00;57.20;;;;;;10203353;28;96624;-68
2023/04/14 15:52:11;;;;;;;;;;;18.00;57.30;;;;;;10203105;28;93060;-68
2023/04/14 15:57:13;;;;;;;;;;;18.00;56.80;;;;;;10205762;28;94460;-68
2023/04/14 16:02:15;;;;;;;;;;;18.10;57.00;;;;;;10206584;28;94632;-68
2023/04/14 16:07:17;;;;;;;;;;;18.20;57.00;;;;;;10188170;28;94523;-68
2023/04/14 16:12:19;;;;;;;;;;;18.20;57.00;;;;;;10205739;28;93809;-68
2023/04/14 16:17:22;;;;;;;;;;;18.20;57.00;;;;;;10204633;28;92512;-68
2023/04/14 16:22:26;;;;;;;;;;;18.20;57.10;;;;;;10189464;28;93638;-68
2023/04/14 16:27:28;;;;;;;;;;;18.20;57.20;;;;;;10212077;28;93647;-68
2023/04/14 16:32:29;;;;;;;;;;;18.20;57.30;;;;;;10211375;28;93566;-68
2023/04/14 16:37:31;;;;;;;;;;;18.20;58.00;;;;;;10209633;28;96051;-68
2023/04/14 16:42:34;;;;;;;;;;;18.40;58.30;;;;;;10211679;28;94613;-68
2023/04/14 16:47:36;;;;;;;;;;;18.50;58.10;;;;;;10213646;28;93942;-68
2023/04/14 16:52:38;;;;;;;;;;;18.80;57.90;;;;;;10210775;28;94008;-68
2023/04/14 16:57:40;;;;;;;;;;;19.00;57.80;;;;;;10211872;28;93845;-68
2023/04/14 17:02:42;;;;;;;;;;;19.10;58.40;;;;;;10210973;28;93888;-68
2023/04/14 17:07:45;;;;;;;;;;;19.20;59.80;;;;;;10211620;28;93444;-68
2023/04/14 17:12:47;;;;;;;;;;;19.30;64.30;;;;;;10212246;28;92525;-69
2023/04/14 17:17:49;;;;;;;;;;;19.50;61.40;;;;;;10211255;28;94575;-68
2023/04/14 17:22:56;;;;;;;;;;;19.50;60.50;;;;;;10194704;28;94427;-69
2023/04/14 17:27:58;;;;;;;;;;;19.50;60.40;;;;;;10208747;28;95698;-68
2023/04/14 17:33:02;;;;;;;;;;;19.40;60.20;;;;;;10211159;28;94487;-69
2023/04/14 17:38:05;;;;;;;;;;;19.30;60.20;;;;;;10209843;28;93375;-69
2023/04/14 17:43:07;;;;;;;;;;;19.20;60.00;;;;;;10209944;28;93460;-70
2023/04/14 17:48:09;;;;;;;;;;;19.10;60.60;;;;;;10209876;28;93529;-70
2023/04/14 17:53:11;;;;;;;;;;;19.00;61.10;;;;;;10210053;28;94313;-70
2023/04/14 17:58:13;;;;;;;;;;;18.90;61.30;;;;;;10209689;28;93703;-70
2023/04/14 18:03:14;;;;;;;;;;;18.90;61.50;;;;;;10193775;28;93703;-70
2023/04/14 18:08:17;;;;;;;;;;;18.90;61.70;;;;;;10209303;28;93464;-71
2023/04/14 18:13:19;;;;;;;;;;;18.80;61.70;;;;;;10208770;28;95323;-71
2023/04/14 18:18:21;;;;;;;;;;;18.70;61.80;;;;;;10206628;28;95895;-71
2023/04/14 18:23:26;;;;;;;;;;;18.60;61.80;;;;;;10208634;28;94392;-70
2023/04/14 18:28:28;;;;;;;;;;;18.60;61.80;;;;;;10209693;28;92743;-69
2023/04/14 18:33:29;;;;;;;;;;;18.50;61.80;;;;;;10209421;28;94476;-69
2023/04/14 18:38:31;;;;;;;;;;;18.50;61.90;;;;;;10208479;28;94149;-70
2023/04/14 18:43:33;;;;;;;;;;;18.40;61.80;;;;;;10208372;28;93481;-69
2023/04/14 18:48:35;;;;;;;;;;;18.40;61.70;;;;;;10207811;28;94902;-69
2023/04/14 18:53:37;;;;;;;;;;;18.30;61.60;;;;;;10208604;28;93451;-71
2023/04/14 18:58:42;;;;;;;;;;;18.30;61.40;;;;;;10208469;28;94736;-70
2023/04/14 19:03:43;;;;;;;;;;;18.30;61.10;;;;;;10207353;28;94252;-71
2023/04/14 19:08:45;;;;;;;;;;;18.30;61.70;;;;;;10205157;28;96065;-71
2023/04/14 19:13:47;;;;;;;;;;;18.30;61.30;;;;;;10207025;28;94460;-70
2023/04/14 19:18:49;;;;;;;;;;;18.30;61.30;;;;;;10206260;28;93738;-70
2023/04/14 19:23:53;;;;;;;;;;;18.30;61.20;;;;;;10205938;28;94460;-69
2023/04/14 19:28:57;;;;;;;;;;;18.40;61.20;;;;;;10240357;28;93099;-70
2023/04/14 19:34:01;;;;;;;;;;;18.30;61.00;;;;;;10246187;28;113970;-69
2023/04/14 19:39:03;;;;;;;;;;;18.30;61.10;;;;;;10247041;28;93240;-69
2023/04/14 19:44:05;;;;;;;;;;;18.30;61.30;;;;;;10247784;28;93828;-70
2023/04/14 19:49:09;;;;;;;;;;;18.20;61.40;;;;;;10245524;28;94035;-68
2023/04/14 19:54:11;;;;;;;;;;;18.20;61.50;;;;;;10246703;28;94450;-71
2023/04/14 19:59:12;;;;;;;;;;;18.20;61.60;;;;;;10225108;28;96622;-70
2023/04/14 20:04:14;;;;;;;;;;;18.10;61.50;;;;;;10246118;28;93590;-69
2023/04/14 20:09:16;;;;;;;;;;;18.10;61.50;;;;;;10246066;28;94504;-69
2023/04/14 20:14:18;;;;;;;;;;;18.10;61.60;;;;;;10245369;28;93312;-69
2023/04/14 20:19:20;;;;;;;;;;;18.10;61.60;;;;;;10228675;28;94480;-68
2023/04/14 20:24:21;;;;;;;;;;;18.10;61.50;;;;;;10245334;28;93412;-69
2023/04/14 20:29:23;;;;;;;;;;;18.10;61.50;;;;;;10226855;28;93520;-69
2023/04/14 20:34:26;;;;;;;;;;;18.00;61.50;;;;;;10247494;28;93046;-70
2023/04/14 20:39:28;;;;;;;;;;;18.10;61.60;;;;;;10244696;28;93380;-70
2023/04/14 20:44:30;;;;;;;;;;;18.00;61.50;;;;;;10244890;28;92497;-69
2023/04/14 20:49:32;;;;;;;;;;;18.00;61.50;;;;;;10242067;28;96514;-70
2023/04/14 20:54:34;;;;;;;;;;;18.00;61.50;;;;;;10245442;28;94435;-68
2023/04/14 20:59:36;;;;;;;;;;;18.00;61.30;;;;;;10243817;28;93504;-69
2023/04/14 21:04:38;;;;;;;;;;;18.00;61.30;;;;;;10244182;28;94556;-68
2023/04/14 21:09:40;;;;;;;;;;;18.00;61.30;;;;;;10244336;28;94409;-67
2023/04/14 21:14:42;;;;;;;;;;;18.00;61.00;;;;;;10251762;28;94459;-68
2023/04/14 21:20:04;;;;;;;;;;;17.90;60.80;;;;;;10246427;28;95209;-67
2023/04/14 21:25:07;;;;;;;;;;;17.90;60.50;;;;;;10250815;28;93684;-68
2023/04/14 21:30:09;;;;;;;;;;;17.90;60.50;;;;;;10250652;28;94444;-67
2023/04/14 21:35:11;;;;;;;;;;;17.80;60.10;;;;;;10250057;28;94291;-67
2023/04/14 21:40:13;;;;;;;;;;;17.80;60.00;;;;;;10247538;28;95861;-68
2023/04/14 21:45:15;;;;;;;;;;;17.80;59.90;;;;;;10249025;28;93375;-67
2023/04/14 21:50:17;;;;;;;;;;;17.80;59.80;;;;;;10231385;28;93522;-67
2023/04/14 21:55:19;;;;;;;;;;;17.70;59.70;;;;;;10232534;28;93374;-68
2023/04/14 22:00:20;;;;;;;;;;;17.70;59.60;;;;;;10249654;28;93645;-68
2023/04/14 22:05:22;;;;;;;;;;;17.70;59.40;;;;;;10248761;28;95186;-69
2023/04/14 22:10:30;;;;;;;;;;;17.70;59.20;;;;;;10249249;28;94367;-69
2023/04/14 22:15:32;;;;;;;;;;;17.70;59.10;;;;;;10250270;28;92572;-70
2023/04/14 22:20:37;;;;;;;;;;;17.60;59.00;;;;;;10230671;28;94004;-71
2023/04/14 22:25:38;;;;;;;;;;;17.60;59.00;;;;;;10249020;28;94393;-69
2023/04/14 22:30:40;;;;;;;;;;;17.60;58.80;;;;;;10246720;28;94920;-66
2023/04/14 22:35:42;;;;;;;;;;;17.50;58.70;;;;;;10249405;28;94549;-69
2023/04/14 22:40:44;;;;;;;;;;;17.50;58.60;;;;;;10248921;28;94524;-67
2023/04/14 22:45:47;;;;;;;;;;;17.50;58.60;;;;;;10248180;28;93994;-67
2023/04/14 22:50:49;;;;;;;;;;;17.50;58.50;;;;;;10248556;28;93771;-67
2023/04/14 22:55:50;;;;;;;;;;;17.50;58.50;;;;;;10247914;28;93374;-67
2023/04/14 23:00:52;;;;;;;;;;;17.50;58.40;;;;;;10248128;28;93944;-68
2023/04/14 23:05:54;;;;;;;;;;;17.50;58.40;;;;;;10249304;28;94001;-68
2023/04/14 23:10:57;;;;;;;;;;;17.50;58.30;;;;;;10248872;28;92742;-67
2023/04/14 23:15:58;;;;;;;;;;;17.50;58.20;;;;;;10248420;28;94527;-68
2023/04/14 23:21:01;;;;;;;;;;;17.50;58.10;;;;;;10245005;28;95751;-67
2023/04/14 23:26:02;;;;;;;;;;;17.40;58.10;;;;;;10247363;28;93251;-68
2023/04/14 23:31:05;;;;;;;;;;;17.40;57.90;;;;;;10248122;28;93981;-69
2023/04/14 23:36:06;;;;;;;;;;;17.40;57.90;;;;;;10247437;28;93621;-67
2023/04/14 23:41:08;;;;;;;;;;;17.40;57.80;;;;;;10246474;28;94266;-69
2023/04/14 23:46:10;;;;;;;;;;;17.40;57.80;;;;;;10229329;28;93413;-69
2023/04/14 23:51:12;;;;;;;;;;;17.40;57.80;;;;;;10247218;28;92793;-67
2023/04/14 23:56:22;;;;;;;;;;;17.40;57.70;;;;;;10247097;28;93752;-69
